sensor_id;sensor_type;location;lat;lon;timestamp;temperature;humidity
68943;DHT22;60852;52.190;4.422;2023-02-28T00:00:15;4.34;79.62
68943;DHT22;60852;52.190;4.422;2023-02-28T00:02:42;4.41;79.67
68943;DHT22;60852;52.190;4.422;2023-02-28T00:05:09;4.44;79.44
68943;DHT22;60852;52.190;4.422;2023-02-28T00:07:36;4.44;79.43
68943;DHT22;60852;52.190;4.422;2023-02-28T00:10:02;4.51;79.40
68943;DHT22;60852;52.190;4.422;2023-02-28T00:12:27;4.52;79.12
68943;DHT22;60852;52.190;4.422;2023-02-28T00:14:53;4.51;79.29
68943;DHT22;60852;52.190;4.422;2023-02-28T00:17:19;4.51;79.37
68943;DHT22;60852;52.190;4.422;2023-02-28T00:19:50;4.52;79.47
68943;DHT22;60852;52.190;4.422;2023-02-28T00:22:18;4.52;79.34
68943;DHT22;60852;52.190;4.422;2023-02-28T00:24:44;4.52;79.55
68943;DHT22;60852;52.190;4.422;2023-02-28T00:27:10;4.54;79.44
68943;DHT22;60852;52.190;4.422;2023-02-28T00:29:36;4.59;79.56
68943;DHT22;60852;52.190;4.422;2023-02-28T00:32:01;4.62;79.27
68943;DHT22;60852;52.190;4.422;2023-02-28T00:34:27;4.65;79.28
68943;DHT22;60852;52.190;4.422;2023-02-28T00:36:52;4.61;79.33
68943;DHT22;60852;52.190;4.422;2023-02-28T00:39:18;4.52;79.51
68943;DHT22;60852;52.190;4.422;2023-02-28T00:41:43;4.48;79.77
68943;DHT22;60852;52.190;4.422;2023-02-28T00:44:09;4.42;79.87
68943;DHT22;60852;52.190;4.422;2023-02-28T00:46:34;4.44;80.22
68943;DHT22;60852;52.190;4.422;2023-02-28T00:49:00;4.47;80.29
68943;DHT22;60852;52.190;4.422;2023-02-28T00:51:25;4.45;80.38
68943;DHT22;60852;52.190;4.422;2023-02-28T00:53:51;4.41;80.56
68943;DHT22;60852;52.190;4.422;2023-02-28T00:56:16;4.44;80.67
68943;DHT22;60852;52.190;4.422;2023-02-28T00:58:42;4.45;80.73
68943;DHT22;60852;52.190;4.422;2023-02-28T01:01:07;4.44;80.87
68943;DHT22;60852;52.190;4.422;2023-02-28T01:03:33;4.45;81.09
68943;DHT22;60852;52.190;4.422;2023-02-28T01:05:58;4.44;81.10
68943;DHT22;60852;52.190;4.422;2023-02-28T01:08:24;4.44;81.28
68943;DHT22;60852;52.190;4.422;2023-02-28T01:10:51;4.44;81.17
68943;DHT22;60852;52.190;4.422;2023-02-28T01:13:18;4.49;81.33
68943;DHT22;60852;52.190;4.422;2023-02-28T01:15:50;4.49;81.29
68943;DHT22;60852;52.190;4.422;2023-02-28T01:18:16;4.55;81.20
68943;DHT22;60852;52.190;4.422;2023-02-28T01:20:41;4.65;81.02
68943;DHT22;60852;52.190;4.422;2023-02-28T01:23:07;4.65;80.72
68943;DHT22;60852;52.190;4.422;2023-02-28T01:25:34;4.65;80.69
68943;DHT22;60852;52.190;4.422;2023-02-28T01:28:00;4.64;80.67
68943;DHT22;60852;52.190;4.422;2023-02-28T01:30:25;4.66;80.80
68943;DHT22;60852;52.190;4.422;2023-02-28T01:32:52;4.71;80.56
68943;DHT22;60852;52.190;4.422;2023-02-28T01:35:19;4.77;80.59
68943;DHT22;60852;52.190;4.422;2023-02-28T01:37:44;4.85;80.62
68943;DHT22;60852;52.190;4.422;2023-02-28T01:40:11;4.89;80.26
68943;DHT22;60852;52.190;4.422;2023-02-28T01:42:36;4.92;80.08
68943;DHT22;60852;52.190;4.422;2023-02-28T01:45:30;4.96;80.08
68943;DHT22;60852;52.190;4.422;2023-02-28T01:48:02;4.96;79.96
68943;DHT22;60852;52.190;4.422;2023-02-28T01:50:33;5.01;79.85
68943;DHT22;60852;52.190;4.422;2023-02-28T01:53:04;5.06;79.60
68943;DHT22;60852;52.190;4.422;2023-02-28T01:55:32;5.05;79.61
68943;DHT22;60852;52.190;4.422;2023-02-28T01:58:02;5.09;79.43
68943;DHT22;60852;52.190;4.422;2023-02-28T02:00:29;5.09;79.41
68943;DHT22;60852;52.190;4.422;2023-02-28T02:02:58;5.10;79.58
68943;DHT22;60852;52.190;4.422;2023-02-28T02:05:27;5.09;79.59
68943;DHT22;60852;52.190;4.422;2023-02-28T02:08:02;5.10;79.66
68943;DHT22;60852;52.190;4.422;2023-02-28T02:10:53;5.12;79.64
68943;DHT22;60852;52.190;4.422;2023-02-28T02:13:49;5.17;79.61
68943;DHT22;60852;52.190;4.422;2023-02-28T02:27:25;5.24;78.98
68943;DHT22;60852;52.190;4.422;2023-02-28T02:35:47;5.26;78.89
68943;DHT22;60852;52.190;4.422;2023-02-28T02:38:38;5.30;78.68
68943;DHT22;60852;52.190;4.422;2023-02-28T02:44:24;5.33;78.76
68943;DHT22;60852;52.190;4.422;2023-02-28T02:46:59;5.40;78.45
68943;DHT22;60852;52.190;4.422;2023-02-28T02:49:32;5.37;78.49
68943;DHT22;60852;52.190;4.422;2023-02-28T02:52:05;5.36;78.47
68943;DHT22;60852;52.190;4.422;2023-02-28T02:54:37;5.36;78.31
68943;DHT22;60852;52.190;4.422;2023-02-28T02:57:08;5.41;78.36
68943;DHT22;60852;52.190;4.422;2023-02-28T02:59:38;5.41;78.02
68943;DHT22;60852;52.190;4.422;2023-02-28T03:02:08;5.45;78.09
68943;DHT22;60852;52.190;4.422;2023-02-28T03:04:52;5.43;78.08
68943;DHT22;60852;52.190;4.422;2023-02-28T03:07:18;5.44;77.97
68943;DHT22;60852;52.190;4.422;2023-02-28T03:09:54;5.52;77.83
68943;DHT22;60852;52.190;4.422;2023-02-28T03:12:27;5.55;77.80
68943;DHT22;60852;52.190;4.422;2023-02-28T03:15:18;5.61;77.64
68943;DHT22;60852;52.190;4.422;2023-02-28T03:18:06;5.58;77.37
68943;DHT22;60852;52.190;4.422;2023-02-28T03:20:38;5.61;77.33
68943;DHT22;60852;52.190;4.422;2023-02-28T03:23:21;5.58;77.54
68943;DHT22;60852;52.190;4.422;2023-02-28T03:26:13;5.54;77.56
68943;DHT22;60852;52.190;4.422;2023-02-28T03:29:06;5.55;77.51
68943;DHT22;60852;52.190;4.422;2023-02-28T03:32:32;5.50;77.73
68943;DHT22;60852;52.190;4.422;2023-02-28T03:34:36;5.47;78.06
68943;DHT22;60852;52.190;4.422;2023-02-28T03:37:12;5.48;78.05
68943;DHT22;60852;52.190;4.422;2023-02-28T03:39:49;5.51;78.11
68943;DHT22;60852;52.190;4.422;2023-02-28T03:42:22;5.54;78.01
68943;DHT22;60852;52.190;4.422;2023-02-28T03:44:59;5.61;77.82
68943;DHT22;60852;52.190;4.422;2023-02-28T03:47:39;5.59;77.97
68943;DHT22;60852;52.190;4.422;2023-02-28T03:50:18;5.65;78.03
68943;DHT22;60852;52.190;4.422;2023-02-28T03:52:51;5.65;77.63
68943;DHT22;60852;52.190;4.422;2023-02-28T03:55:18;5.66;77.56
68943;DHT22;60852;52.190;4.422;2023-02-28T04:01:03;5.68;77.59
68943;DHT22;60852;52.190;4.422;2023-02-28T04:03:35;5.75;77.50
68943;DHT22;60852;52.190;4.422;2023-02-28T04:06:00;5.76;77.26
68943;DHT22;60852;52.190;4.422;2023-02-28T04:08:27;5.75;77.17
68943;DHT22;60852;52.190;4.422;2023-02-28T04:11:01;5.74;77.06
68943;DHT22;60852;52.190;4.422;2023-02-28T04:13:28;5.65;77.15
68943;DHT22;60852;52.190;4.422;2023-02-28T04:15:53;5.68;77.31
68943;DHT22;60852;52.190;4.422;2023-02-28T04:18:18;5.66;77.08
68943;DHT22;60852;52.190;4.422;2023-02-28T04:20:44;5.66;76.54
68943;DHT22;60852;52.190;4.422;2023-02-28T04:23:09;5.64;76.00
68943;DHT22;60852;52.190;4.422;2023-02-28T04:25:35;5.64;75.36
68943;DHT22;60852;52.190;4.422;2023-02-28T04:28:00;5.58;75.23
68943;DHT22;60852;52.190;4.422;2023-02-28T04:30:25;5.57;74.98
68943;DHT22;60852;52.190;4.422;2023-02-28T04:32:51;5.59;74.85
68943;DHT22;60852;52.190;4.422;2023-02-28T04:35:16;5.61;74.50
68943;DHT22;60852;52.190;4.422;2023-02-28T04:37:42;5.69;74.36
68943;DHT22;60852;52.190;4.422;2023-02-28T04:40:08;5.69;74.13
68943;DHT22;60852;52.190;4.422;2023-02-28T04:42:33;5.68;74.03
68943;DHT22;60852;52.190;4.422;2023-02-28T04:45:02;5.68;74.11
68943;DHT22;60852;52.190;4.422;2023-02-28T04:47:28;5.72;74.18
68943;DHT22;60852;52.190;4.422;2023-02-28T04:49:54;5.86;74.01
68943;DHT22;60852;52.190;4.422;2023-02-28T04:52:19;5.95;73.94
68943;DHT22;60852;52.190;4.422;2023-02-28T04:54:44;6.02;73.68
68943;DHT22;60852;52.190;4.422;2023-02-28T04:57:10;6.07;73.72
68943;DHT22;60852;52.190;4.422;2023-02-28T04:59:35;6.15;73.64
68943;DHT22;60852;52.190;4.422;2023-02-28T05:02:01;6.22;73.36
68943;DHT22;60852;52.190;4.422;2023-02-28T05:04:35;6.22;73.28
68943;DHT22;60852;52.190;4.422;2023-02-28T05:07:01;6.25;73.25
68943;DHT22;60852;52.190;4.422;2023-02-28T05:09:28;6.26;73.45
68943;DHT22;60852;52.190;4.422;2023-02-28T05:11:55;6.26;73.35
68943;DHT22;60852;52.190;4.422;2023-02-28T05:14:21;6.29;73.41
68943;DHT22;60852;52.190;4.422;2023-02-28T05:16:46;6.34;73.47
68943;DHT22;60852;52.190;4.422;2023-02-28T05:19:12;6.32;73.40
68943;DHT22;60852;52.190;4.422;2023-02-28T05:21:40;6.33;73.63
68943;DHT22;60852;52.190;4.422;2023-02-28T05:24:10;6.33;73.95
68943;DHT22;60852;52.190;4.422;2023-02-28T05:26:38;6.36;73.93
68943;DHT22;60852;52.190;4.422;2023-02-28T05:29:04;6.38;74.14
68943;DHT22;60852;52.190;4.422;2023-02-28T05:31:30;6.36;74.23
68943;DHT22;60852;52.190;4.422;2023-02-28T05:33:56;6.33;74.46
68943;DHT22;60852;52.190;4.422;2023-02-28T05:36:22;6.30;74.53
68943;DHT22;60852;52.190;4.422;2023-02-28T05:38:48;6.27;74.61
68943;DHT22;60852;52.190;4.422;2023-02-28T05:41:14;6.26;74.67
68943;DHT22;60852;52.190;4.422;2023-02-28T05:43:39;6.26;74.47
68943;DHT22;60852;52.190;4.422;2023-02-28T05:46:07;6.27;74.14
68943;DHT22;60852;52.190;4.422;2023-02-28T05:48:34;6.23;74.11
68943;DHT22;60852;52.190;4.422;2023-02-28T05:51:00;6.25;74.10
68943;DHT22;60852;52.190;4.422;2023-02-28T05:53:26;6.26;73.68
68943;DHT22;60852;52.190;4.422;2023-02-28T05:55:52;6.25;73.71
68943;DHT22;60852;52.190;4.422;2023-02-28T05:58:17;6.27;73.20
68943;DHT22;60852;52.190;4.422;2023-02-28T06:00:43;6.27;72.96
68943;DHT22;60852;52.190;4.422;2023-02-28T06:03:09;6.27;72.14
68943;DHT22;60852;52.190;4.422;2023-02-28T06:05:34;6.26;72.24
68943;DHT22;60852;52.190;4.422;2023-02-28T06:08:00;6.29;72.21
68943;DHT22;60852;52.190;4.422;2023-02-28T06:10:25;6.27;72.04
68943;DHT22;60852;52.190;4.422;2023-02-28T06:12:51;6.25;72.03
68943;DHT22;60852;52.190;4.422;2023-02-28T06:15:16;6.29;71.82
68943;DHT22;60852;52.190;4.422;2023-02-28T06:17:43;6.27;71.72
68943;DHT22;60852;52.190;4.422;2023-02-28T06:20:11;6.23;71.62
68943;DHT22;60852;52.190;4.422;2023-02-28T06:22:38;6.19;71.46
68943;DHT22;60852;52.190;4.422;2023-02-28T06:25:05;6.25;71.63
68943;DHT22;60852;52.190;4.422;2023-02-28T06:27:33;6.25;71.70
68943;DHT22;60852;52.190;4.422;2023-02-28T06:29:58;6.23;71.69
68943;DHT22;60852;52.190;4.422;2023-02-28T06:32:24;6.20;71.58
68943;DHT22;60852;52.190;4.422;2023-02-28T06:34:49;6.15;71.30
68943;DHT22;60852;52.190;4.422;2023-02-28T06:37:16;6.10;71.59
68943;DHT22;60852;52.190;4.422;2023-02-28T06:39:42;6.07;71.79
68943;DHT22;60852;52.190;4.422;2023-02-28T06:42:07;6.10;71.83
68943;DHT22;60852;52.190;4.422;2023-02-28T06:44:32;6.09;72.07
68943;DHT22;60852;52.190;4.422;2023-02-28T06:47:01;6.12;72.36
68943;DHT22;60852;52.190;4.422;2023-02-28T06:49:32;6.12;72.36
68943;DHT22;60852;52.190;4.422;2023-02-28T06:51:57;6.12;72.60
68943;DHT22;60852;52.190;4.422;2023-02-28T06:54:23;6.07;72.95
68943;DHT22;60852;52.190;4.422;2023-02-28T06:56:49;6.06;73.04
68943;DHT22;60852;52.190;4.422;2023-02-28T06:59:14;6.05;73.51
68943;DHT22;60852;52.190;4.422;2023-02-28T07:01:40;5.99;74.04
68943;DHT22;60852;52.190;4.422;2023-02-28T07:04:06;5.85;74.47
68943;DHT22;60852;52.190;4.422;2023-02-28T07:06:32;5.85;74.89
68943;DHT22;60852;52.190;4.422;2023-02-28T07:08:57;5.74;75.14
68943;DHT22;60852;52.190;4.422;2023-02-28T07:11:25;5.76;75.47
68943;DHT22;60852;52.190;4.422;2023-02-28T07:13:52;5.78;75.85
68943;DHT22;60852;52.190;4.422;2023-02-28T07:16:18;5.78;75.86
68943;DHT22;60852;52.190;4.422;2023-02-28T07:18:43;5.74;75.93
68943;DHT22;60852;52.190;4.422;2023-02-28T07:21:10;5.69;76.05
68943;DHT22;60852;52.190;4.422;2023-02-28T07:23:37;5.62;76.42
68943;DHT22;60852;52.190;4.422;2023-02-28T07:26:12;5.51;76.93
68943;DHT22;60852;52.190;4.422;2023-02-28T07:28:41;5.47;77.40
68943;DHT22;60852;52.190;4.422;2023-02-28T07:31:09;5.40;77.44
68943;DHT22;60852;52.190;4.422;2023-02-28T07:33:35;5.34;77.73
68943;DHT22;60852;52.190;4.422;2023-02-28T07:36:06;5.30;78.06
68943;DHT22;60852;52.190;4.422;2023-02-28T07:38:36;5.12;77.58
68943;DHT22;60852;52.190;4.422;2023-02-28T07:41:02;4.96;77.80
68943;DHT22;60852;52.190;4.422;2023-02-28T07:43:31;4.83;77.67
68943;DHT22;60852;52.190;4.422;2023-02-28T07:46:05;4.58;77.87
68943;DHT22;60852;52.190;4.422;2023-02-28T07:48:31;4.35;78.39
68943;DHT22;60852;52.190;4.422;2023-02-28T07:50:58;4.27;78.73
68943;DHT22;60852;52.190;4.422;2023-02-28T07:53:23;4.22;78.96
68943;DHT22;60852;52.190;4.422;2023-02-28T07:55:49;4.10;79.10
68943;DHT22;60852;52.190;4.422;2023-02-28T07:58:15;4.18;79.41
68943;DHT22;60852;52.190;4.422;2023-02-28T08:00:40;4.16;79.44
68943;DHT22;60852;52.190;4.422;2023-02-28T08:03:05;4.14;79.38
68943;DHT22;60852;52.190;4.422;2023-02-28T08:05:31;4.11;79.23
68943;DHT22;60852;52.190;4.422;2023-02-28T08:07:57;4.07;79.58
68943;DHT22;60852;52.190;4.422;2023-02-28T08:10:22;4.08;79.74
68943;DHT22;60852;52.190;4.422;2023-02-28T08:12:49;4.11;79.85
68943;DHT22;60852;52.190;4.422;2023-02-28T08:15:15;4.16;79.77
68943;DHT22;60852;52.190;4.422;2023-02-28T08:17:40;4.11;79.95
68943;DHT22;60852;52.190;4.422;2023-02-28T08:20:06;4.20;80.11
68943;DHT22;60852;52.190;4.422;2023-02-28T08:22:32;4.25;80.01
68943;DHT22;60852;52.190;4.422;2023-02-28T08:24:58;4.34;80.20
68943;DHT22;60852;52.190;4.422;2023-02-28T08:27:23;4.41;79.98
68943;DHT22;60852;52.190;4.422;2023-02-28T08:29:49;4.34;79.77
68943;DHT22;60852;52.190;4.422;2023-02-28T08:32:14;4.25;79.75
68943;DHT22;60852;52.190;4.422;2023-02-28T08:34:40;4.25;80.08
68943;DHT22;60852;52.190;4.422;2023-02-28T08:37:06;4.28;79.93
68943;DHT22;60852;52.190;4.422;2023-02-28T08:39:34;4.30;79.96
68943;DHT22;60852;52.190;4.422;2023-02-28T08:42:02;4.28;79.85
68943;DHT22;60852;52.190;4.422;2023-02-28T08:44:27;4.25;79.88
68943;DHT22;60852;52.190;4.422;2023-02-28T08:46:53;4.25;80.00
68943;DHT22;60852;52.190;4.422;2023-02-28T08:49:18;4.31;80.04
68943;DHT22;60852;52.190;4.422;2023-02-28T08:51:44;4.35;79.81
68943;DHT22;60852;52.190;4.422;2023-02-28T08:54:09;4.40;79.91
68943;DHT22;60852;52.190;4.422;2023-02-28T08:56:38;4.38;79.98
68943;DHT22;60852;52.190;4.422;2023-02-28T08:59:04;4.41;80.06
68943;DHT22;60852;52.190;4.422;2023-02-28T09:01:30;4.28;80.09
68943;DHT22;60852;52.190;4.422;2023-02-28T09:03:58;4.25;80.18
68943;DHT22;60852;52.190;4.422;2023-02-28T09:06:26;4.25;80.18
68943;DHT22;60852;52.190;4.422;2023-02-28T09:08:52;4.30;80.12
68943;DHT22;60852;52.190;4.422;2023-02-28T09:11:19;4.24;80.45
68943;DHT22;60852;52.190;4.422;2023-02-28T09:13:45;4.27;80.60
68943;DHT22;60852;52.190;4.422;2023-02-28T09:16:14;4.28;80.59
68943;DHT22;60852;52.190;4.422;2023-02-28T09:18:40;4.33;80.55
68943;DHT22;60852;52.190;4.422;2023-02-28T09:21:07;4.34;80.24
68943;DHT22;60852;52.190;4.422;2023-02-28T09:23:34;4.45;80.53
68943;DHT22;60852;52.190;4.422;2023-02-28T09:26:00;4.49;80.27
68943;DHT22;60852;52.190;4.422;2023-02-28T09:28:26;4.56;80.02
68943;DHT22;60852;52.190;4.422;2023-02-28T09:30:53;4.65;80.03
68943;DHT22;60852;52.190;4.422;2023-02-28T09:33:21;4.77;79.83
68943;DHT22;60852;52.190;4.422;2023-02-28T09:35:50;4.89;79.74
68943;DHT22;60852;52.190;4.422;2023-02-28T09:38:17;4.99;79.25
68943;DHT22;60852;52.190;4.422;2023-02-28T09:40:50;5.07;78.88
68943;DHT22;60852;52.190;4.422;2023-02-28T09:43:20;5.13;78.53
68943;DHT22;60852;52.190;4.422;2023-02-28T09:45:57;5.13;78.17
68943;DHT22;60852;52.190;4.422;2023-02-28T09:48:34;5.13;77.91
68943;DHT22;60852;52.190;4.422;2023-02-28T09:53:54;5.37;77.76
68943;DHT22;60852;52.190;4.422;2023-02-28T09:56:25;5.40;76.89
68943;DHT22;60852;52.190;4.422;2023-02-28T09:59:04;5.37;75.61
68943;DHT22;60852;52.190;4.422;2023-02-28T10:01:39;5.41;75.93
68943;DHT22;60852;52.190;4.422;2023-02-28T10:06:49;5.59;76.26
68943;DHT22;60852;52.190;4.422;2023-02-28T10:09:23;5.71;75.42
68943;DHT22;60852;52.190;4.422;2023-02-28T10:11:56;5.82;75.63
68943;DHT22;60852;52.190;4.422;2023-02-28T10:14:28;5.94;75.31
68943;DHT22;60852;52.190;4.422;2023-02-28T10:17:15;5.89;72.81
68943;DHT22;60852;52.190;4.422;2023-02-28T10:22:31;5.69;72.38
68943;DHT22;60852;52.190;4.422;2023-02-28T10:24:59;5.69;71.84
68943;DHT22;60852;52.190;4.422;2023-02-28T10:27:32;5.71;71.17
68943;DHT22;60852;52.190;4.422;2023-02-28T10:30:00;5.69;70.83
68943;DHT22;60852;52.190;4.422;2023-02-28T10:32:34;5.84;70.41
68943;DHT22;60852;52.190;4.422;2023-02-28T10:37:47;5.94;70.15
68943;DHT22;60852;52.190;4.422;2023-02-28T10:43:03;5.82;67.46
68943;DHT22;60852;52.190;4.422;2023-02-28T10:45:32;5.71;67.50
68943;DHT22;60852;52.190;4.422;2023-02-28T10:52:53;5.76;65.86
68943;DHT22;60852;52.190;4.422;2023-02-28T10:55:24;5.78;66.23
68943;DHT22;60852;52.190;4.422;2023-02-28T10:57:51;5.92;66.63
68943;DHT22;60852;52.190;4.422;2023-02-28T11:00:19;6.01;65.75
68943;DHT22;60852;52.190;4.422;2023-02-28T11:02:44;6.03;65.80
68943;DHT22;60852;52.190;4.422;2023-02-28T11:10:31;5.91;62.87
68943;DHT22;60852;52.190;4.422;2023-02-28T11:13:01;5.98;61.70
68943;DHT22;60852;52.190;4.422;2023-02-28T11:15:29;6.05;61.16
68943;DHT22;60852;52.190;4.422;2023-02-28T11:18:25;6.26;61.23
68943;DHT22;60852;52.190;4.422;2023-02-28T11:20:55;6.53;61.46
68943;DHT22;60852;52.190;4.422;2023-02-28T11:23:26;6.80;60.71
68943;DHT22;60852;52.190;4.422;2023-02-28T11:25:58;7.08;59.21
68943;DHT22;60852;52.190;4.422;2023-02-28T11:33:31;7.15;57.91
68943;DHT22;60852;52.190;4.422;2023-02-28T11:36:08;7.22;58.19
68943;DHT22;60852;52.190;4.422;2023-02-28T11:38:36;7.16;56.85
68943;DHT22;60852;52.190;4.422;2023-02-28T11:50:11;6.74;57.03
68943;DHT22;60852;52.190;4.422;2023-02-28T11:55:40;7.02;54.78
68943;DHT22;60852;52.190;4.422;2023-02-28T12:01:01;7.25;55.81
68943;DHT22;60852;52.190;4.422;2023-02-28T12:03:45;7.42;56.23
68943;DHT22;60852;52.190;4.422;2023-02-28T12:06:22;7.42;54.13
68943;DHT22;60852;52.190;4.422;2023-02-28T12:11:48;7.26;55.63
68943;DHT22;60852;52.190;4.422;2023-02-28T12:19:57;7.01;56.31
68943;DHT22;60852;52.190;4.422;2023-02-28T12:27:55;7.40;53.92
68943;DHT22;60852;52.190;4.422;2023-02-28T12:30:26;7.25;54.63
68943;DHT22;60852;52.190;4.422;2023-02-28T12:33:03;6.96;54.75
68943;DHT22;60852;52.190;4.422;2023-02-28T12:38:22;6.44;55.07
68943;DHT22;60852;52.190;4.422;2023-02-28T12:40:54;6.33;55.36
68943;DHT22;60852;52.190;4.422;2023-02-28T12:43:25;6.46;56.31
68943;DHT22;60852;52.190;4.422;2023-02-28T12:46:16;6.67;52.87
68943;DHT22;60852;52.190;4.422;2023-02-28T12:48:43;6.84;54.21
68943;DHT22;60852;52.190;4.422;2023-02-28T12:51:12;6.96;52.82
68943;DHT22;60852;52.190;4.422;2023-02-28T13:09:59;6.71;51.75
68943;DHT22;60852;52.190;4.422;2023-02-28T13:12:26;6.65;51.35
68943;DHT22;60852;52.190;4.422;2023-02-28T13:15:06;6.80;50.35
68943;DHT22;60852;52.190;4.422;2023-02-28T13:17:39;6.54;51.36
68943;DHT22;60852;52.190;4.422;2023-02-28T13:20:17;6.64;51.04
68943;DHT22;60852;52.190;4.422;2023-02-28T13:22:46;6.68;52.04
68943;DHT22;60852;52.190;4.422;2023-02-28T13:28:07;6.50;51.65
68943;DHT22;60852;52.190;4.422;2023-02-28T13:33:32;6.47;50.80
68943;DHT22;60852;52.190;4.422;2023-02-28T13:38:41;6.40;50.84
68943;DHT22;60852;52.190;4.422;2023-02-28T13:44:20;6.50;49.95
68943;DHT22;60852;52.190;4.422;2023-02-28T13:51:51;6.73;50.37
68943;DHT22;60852;52.190;4.422;2023-02-28T13:57:44;6.88;48.97
68943;DHT22;60852;52.190;4.422;2023-02-28T14:05:42;6.85;48.77
68943;DHT22;60852;52.190;4.422;2023-02-28T14:08:15;6.89;49.51
68943;DHT22;60852;52.190;4.422;2023-02-28T14:10:48;6.77;50.06
68943;DHT22;60852;52.190;4.422;2023-02-28T14:13:40;6.78;50.50
68943;DHT22;60852;52.190;4.422;2023-02-28T14:16:20;6.99;50.37
68943;DHT22;60852;52.190;4.422;2023-02-28T14:21:32;7.08;48.18
68943;DHT22;60852;52.190;4.422;2023-02-28T14:35:18;7.27;49.10
68943;DHT22;60852;52.190;4.422;2023-02-28T14:37:45;7.26;47.69
68943;DHT22;60852;52.190;4.422;2023-02-28T14:40:26;7.14;48.01
68943;DHT22;60852;52.190;4.422;2023-02-28T14:42:59;7.12;48.50
68943;DHT22;60852;52.190;4.422;2023-02-28T14:45:29;7.18;48.74
68943;DHT22;60852;52.190;4.422;2023-02-28T14:47:57;7.15;49.23
68943;DHT22;60852;52.190;4.422;2023-02-28T14:50:36;7.11;48.96
68943;DHT22;60852;52.190;4.422;2023-02-28T14:53:03;7.09;49.51
68943;DHT22;60852;52.190;4.422;2023-02-28T14:55:34;7.05;49.54
68943;DHT22;60852;52.190;4.422;2023-02-28T14:58:03;7.02;49.96
68943;DHT22;60852;52.190;4.422;2023-02-28T15:00:36;7.11;48.19
68943;DHT22;60852;52.190;4.422;2023-02-28T15:03:24;7.04;48.79
68943;DHT22;60852;52.190;4.422;2023-02-28T15:05:56;7.01;50.19
68943;DHT22;60852;52.190;4.422;2023-02-28T15:08:23;7.05;49.05
68943;DHT22;60852;52.190;4.422;2023-02-28T15:10:56;7.04;49.39
68943;DHT22;60852;52.190;4.422;2023-02-28T15:13:47;7.06;49.28
68943;DHT22;60852;52.190;4.422;2023-02-28T15:16:22;7.09;49.52
68943;DHT22;60852;52.190;4.422;2023-02-28T15:19:00;7.14;48.91
68943;DHT22;60852;52.190;4.422;2023-02-28T15:21:33;7.14;49.28
68943;DHT22;60852;52.190;4.422;2023-02-28T15:24:17;7.18;54.43
68943;DHT22;60852;52.190;4.422;2023-02-28T15:26:55;7.15;56.66
68943;DHT22;60852;52.190;4.422;2023-02-28T15:29:24;7.15;56.84
68943;DHT22;60852;52.190;4.422;2023-02-28T15:32:05;7.12;57.74
68943;DHT22;60852;52.190;4.422;2023-02-28T15:34:40;7.16;57.96
68943;DHT22;60852;52.190;4.422;2023-02-28T15:38:12;7.16;57.79
68943;DHT22;60852;52.190;4.422;2023-02-28T15:40:29;7.15;57.09
68943;DHT22;60852;52.190;4.422;2023-02-28T15:43:04;7.20;49.41
68943;DHT22;60852;52.190;4.422;2023-02-28T15:45:37;7.27;48.90
68943;DHT22;60852;52.190;4.422;2023-02-28T15:48:09;7.37;47.21
68943;DHT22;60852;52.190;4.422;2023-02-28T15:50:38;7.33;46.65
68943;DHT22;60852;52.190;4.422;2023-02-28T15:53:18;7.29;46.32
68943;DHT22;60852;52.190;4.422;2023-02-28T15:55:45;7.26;46.39
68943;DHT22;60852;52.190;4.422;2023-02-28T15:58:12;7.19;46.54
68943;DHT22;60852;52.190;4.422;2023-02-28T16:00:39;7.20;47.34
68943;DHT22;60852;52.190;4.422;2023-02-28T16:03:32;7.25;48.21
68943;DHT22;60852;52.190;4.422;2023-02-28T16:08:49;7.15;48.79
68943;DHT22;60852;52.190;4.422;2023-02-28T16:11:16;7.14;48.65
68943;DHT22;60852;52.190;4.422;2023-02-28T16:13:42;7.09;48.70
68943;DHT22;60852;52.190;4.422;2023-02-28T16:16:08;7.08;49.26
68943;DHT22;60852;52.190;4.422;2023-02-28T16:18:33;7.06;48.83
68943;DHT22;60852;52.190;4.422;2023-02-28T16:20:59;7.02;48.56
68943;DHT22;60852;52.190;4.422;2023-02-28T16:23:24;6.96;49.19
68943;DHT22;60852;52.190;4.422;2023-02-28T16:25:50;6.87;49.39
68943;DHT22;60852;52.190;4.422;2023-02-28T16:28:28;6.88;49.53
68943;DHT22;60852;52.190;4.422;2023-02-28T16:30:59;6.91;50.12
68943;DHT22;60852;52.190;4.422;2023-02-28T16:33:25;6.81;49.22
68943;DHT22;60852;52.190;4.422;2023-02-28T16:35:51;6.75;49.79
68943;DHT22;60852;52.190;4.422;2023-02-28T16:38:17;6.77;49.40
68943;DHT22;60852;52.190;4.422;2023-02-28T16:40:44;6.81;49.38
68943;DHT22;60852;52.190;4.422;2023-02-28T16:43:28;6.81;48.38
68943;DHT22;60852;52.190;4.422;2023-02-28T16:45:57;6.80;49.34
68943;DHT22;60852;52.190;4.422;2023-02-28T16:48:24;6.75;51.04
68943;DHT22;60852;52.190;4.422;2023-02-28T16:50:50;6.70;51.49
68943;DHT22;60852;52.190;4.422;2023-02-28T16:53:16;6.67;52.36
68943;DHT22;60852;52.190;4.422;2023-02-28T16:55:42;6.64;52.54
68943;DHT22;60852;52.190;4.422;2023-02-28T16:58:15;6.55;52.85
68943;DHT22;60852;52.190;4.422;2023-02-28T17:00:41;6.43;52.69
68943;DHT22;60852;52.190;4.422;2023-02-28T17:03:25;6.38;52.60
68943;DHT22;60852;52.190;4.422;2023-02-28T17:05:51;6.36;52.56
68943;DHT22;60852;52.190;4.422;2023-02-28T17:08:17;6.26;52.65
68943;DHT22;60852;52.190;4.422;2023-02-28T17:10:42;6.32;53.00
68943;DHT22;60852;52.190;4.422;2023-02-28T17:13:08;6.26;52.72
68943;DHT22;60852;52.190;4.422;2023-02-28T17:15:35;6.23;53.46
68943;DHT22;60852;52.190;4.422;2023-02-28T17:18:02;6.17;54.13
68943;DHT22;60852;52.190;4.422;2023-02-28T17:20:28;6.06;54.72
68943;DHT22;60852;52.190;4.422;2023-02-28T17:22:54;5.98;55.41
68943;DHT22;60852;52.190;4.422;2023-02-28T17:25:20;5.95;55.81
68943;DHT22;60852;52.190;4.422;2023-02-28T17:27:47;5.89;56.36
68943;DHT22;60852;52.190;4.422;2023-02-28T17:30:19;5.79;56.90
68943;DHT22;60852;52.190;4.422;2023-02-28T17:32:45;5.71;57.46
68943;DHT22;60852;52.190;4.422;2023-02-28T17:35:12;5.71;57.54
68943;DHT22;60852;52.190;4.422;2023-02-28T17:37:38;5.65;57.97
68943;DHT22;60852;52.190;4.422;2023-02-28T17:40:04;5.62;58.19
68943;DHT22;60852;52.190;4.422;2023-02-28T17:42:30;5.52;58.67
68943;DHT22;60852;52.190;4.422;2023-02-28T17:44:55;5.48;58.84
68943;DHT22;60852;52.190;4.422;2023-02-28T17:47:21;5.43;59.03
68943;DHT22;60852;52.190;4.422;2023-02-28T17:49:46;5.45;59.19
68943;DHT22;60852;52.190;4.422;2023-02-28T17:52:12;5.44;59.16
68943;DHT22;60852;52.190;4.422;2023-02-28T17:54:37;5.40;59.21
68943;DHT22;60852;52.190;4.422;2023-02-28T17:57:02;5.38;59.35
68943;DHT22;60852;52.190;4.422;2023-02-28T17:59:28;5.41;59.28
68943;DHT22;60852;52.190;4.422;2023-02-28T18:02:02;5.37;59.35
68943;DHT22;60852;52.190;4.422;2023-02-28T18:04:29;5.34;59.26
68943;DHT22;60852;52.190;4.422;2023-02-28T18:06:54;5.33;59.01
68943;DHT22;60852;52.190;4.422;2023-02-28T18:09:26;5.33;59.36
68943;DHT22;60852;52.190;4.422;2023-02-28T18:11:54;5.36;59.01
68943;DHT22;60852;52.190;4.422;2023-02-28T18:14:22;5.36;58.83
68943;DHT22;60852;52.190;4.422;2023-02-28T18:16:49;5.31;58.89
68943;DHT22;60852;52.190;4.422;2023-02-28T18:19:14;5.23;58.99
68943;DHT22;60852;52.190;4.422;2023-02-28T18:21:47;5.16;59.37